createdAt,value
2019-05-07T00:01:20.018Z,1.90
2019-05-07T00:03:48.325Z,2.20
2019-05-07T00:06:16.499Z,4.23
2019-05-07T00:08:45.130Z,1.50
2019-05-07T00:11:13.478Z,3.27
2019-05-07T00:13:44.175Z,1.63
2019-05-07T00:16:12.830Z,3.20
2019-05-07T00:18:42.935Z,4.90
2019-05-07T00:21:12.625Z,3.70
2019-05-07T00:23:43.193Z,2.47
2019-05-07T00:26:13.204Z,2.43
2019-05-07T00:28:43.207Z,3.30
2019-05-07T00:31:12.345Z,2.67
2019-05-07T00:33:43.026Z,3.77
2019-05-07T00:36:45.097Z,3.93
2019-05-07T00:39:23.617Z,2.00
2019-05-07T00:41:58.365Z,3.50
2019-05-07T00:44:26.901Z,1.77
2019-05-07T00:46:55.179Z,3.20
2019-05-07T00:49:25.241Z,2.77
2019-05-07T00:51:53.527Z,2.87
2019-05-07T00:54:23.044Z,3.93
2019-05-07T00:56:52.150Z,4.23
2019-05-07T00:59:22.482Z,3.70
2019-05-07T01:01:52.751Z,4.73
2019-05-07T01:04:22.856Z,5.23
2019-05-07T01:06:53.023Z,2.17
2019-05-07T01:09:22.889Z,2.90
2019-05-07T01:11:52.261Z,3.03
2019-05-07T01:14:22.645Z,6.53
2019-05-07T01:16:52.875Z,4.37
2019-05-07T01:19:21.929Z,2.47
2019-05-07T01:21:52.349Z,2.97
2019-05-07T01:24:20.594Z,3.17
2019-05-07T01:26:48.734Z,3.47
2019-05-07T01:29:16.951Z,3.37
2019-05-07T01:31:52.624Z,2.23
2019-05-07T01:34:40.217Z,2.57
2019-05-07T01:37:08.671Z,4.43
2019-05-07T01:39:37.097Z,6.37
2019-05-07T01:42:05.378Z,4.07
2019-05-07T01:44:33.698Z,2.80
2019-05-07T01:47:02.662Z,2.73
2019-05-07T01:49:33.027Z,2.03
2019-05-07T01:52:02.489Z,5.70
2019-05-07T01:54:32.960Z,3.13
2019-05-07T01:57:02.870Z,2.87
2019-05-07T01:59:32.151Z,2.63
2019-05-07T02:02:05.526Z,2.27
2019-05-07T02:04:49.342Z,2.30
2019-05-07T02:07:25.604Z,4.37
2019-05-07T02:10:12.170Z,5.23
2019-05-07T02:12:42.532Z,4.37
2019-05-07T02:15:11.983Z,5.93
2019-05-07T02:17:40.416Z,2.27
2019-05-07T02:20:08.880Z,2.37
2019-05-07T02:22:37.070Z,4.70
2019-05-07T02:25:05.866Z,3.80
2019-05-07T02:27:34.224Z,3.60
2019-05-07T02:30:04.083Z,2.63
2019-05-07T02:32:33.672Z,3.80
2019-05-07T02:35:04.146Z,3.23
2019-05-07T02:37:48.285Z,2.73
2019-05-07T02:40:23.467Z,3.87
2019-05-07T02:42:53.887Z,7.70
2019-05-07T02:45:33.254Z,3.33
2019-05-07T02:48:03.433Z,2.47
2019-05-07T02:50:38.263Z,2.17
2019-05-07T02:53:17.696Z,2.27
2019-05-07T02:55:52.852Z,4.57
2019-05-07T02:58:23.860Z,3.60
2019-05-07T03:00:53.144Z,5.37
2019-05-07T03:03:24.316Z,3.70
2019-05-07T03:05:53.691Z,2.90
2019-05-07T03:08:26.580Z,3.50
2019-05-07T03:10:52.735Z,3.23
2019-05-07T03:13:23.592Z,4.00
2019-05-07T03:15:54.096Z,2.40
2019-05-07T03:18:23.315Z,5.20
2019-05-07T03:20:56.072Z,3.50
2019-05-07T03:23:29.060Z,6.47
2019-05-07T03:26:06.314Z,3.47
2019-05-07T03:28:48.997Z,4.53
2019-05-07T03:31:26.148Z,4.97
2019-05-07T03:34:06.297Z,6.40
2019-05-07T03:36:47.565Z,6.10
2019-05-07T03:39:14.556Z,3.13
2019-05-07T03:41:43.493Z,2.60
2019-05-07T03:44:18.440Z,3.03
2019-05-07T03:47:01.168Z,7.17
2019-05-07T03:49:34.251Z,5.13
2019-05-07T03:52:04.283Z,6.20
2019-05-07T03:54:33.951Z,11.80
2019-05-07T03:57:10.378Z,20.67
2019-05-07T03:59:34.308Z,21.23
2019-05-07T04:02:03.335Z,11.33
2019-05-07T04:04:33.238Z,8.37
2019-05-07T04:07:03.476Z,8.23
2019-05-07T04:09:33.398Z,6.40
2019-05-07T04:12:03.884Z,6.43
2019-05-07T04:14:34.459Z,10.70
2019-05-07T04:17:14.499Z,4.93
2019-05-07T04:19:32.991Z,6.00
2019-05-07T04:22:04.327Z,8.03
2019-05-07T04:24:49.752Z,3.90
2019-05-07T04:27:26.789Z,3.93
2019-05-07T04:29:55.063Z,4.50
2019-05-07T04:32:26.250Z,5.37
2019-05-07T04:35:04.255Z,6.70
2019-05-07T04:37:33.247Z,5.10
2019-05-07T04:40:03.244Z,5.10
2019-05-07T04:42:33.473Z,4.27
2019-05-07T04:45:04.323Z,9.10
2019-05-07T04:47:42.151Z,12.97
2019-05-07T04:50:03.744Z,9.70
2019-05-07T04:52:34.817Z,8.17
2019-05-07T04:55:04.052Z,11.27
2019-05-07T04:57:33.088Z,13.40
2019-05-07T05:00:04.470Z,11.87
2019-05-07T05:02:55.044Z,11.03
2019-05-07T05:05:24.017Z,8.97
2019-05-07T05:07:53.377Z,5.93
2019-05-07T05:10:23.074Z,8.27
2019-05-07T05:12:53.721Z,7.30
2019-05-07T05:15:22.259Z,7.70
2019-05-07T05:17:53.712Z,9.53
2019-05-07T05:20:27.666Z,11.73
2019-05-07T05:23:18.416Z,16.03
2019-05-07T05:25:46.774Z,14.40
2019-05-07T05:28:15.438Z,11.97
2019-05-07T05:30:48.401Z,10.80
2019-05-07T05:33:16.598Z,11.77
2019-05-07T05:35:44.877Z,7.77
2019-05-07T05:38:12.991Z,8.50
2019-05-07T05:40:42.711Z,7.03
2019-05-07T05:43:18.368Z,7.77
2019-05-07T05:45:47.194Z,9.47
2019-05-07T05:48:15.590Z,9.43
2019-05-07T05:51:05.922Z,7.70
2019-05-07T05:53:43.524Z,10.67
2019-05-07T05:56:22.830Z,10.70
2019-05-07T05:59:12.075Z,8.60
2019-05-07T06:01:56.784Z,15.33
2019-05-07T06:04:47.850Z,9.77
2019-05-07T06:07:24.289Z,10.07
2019-05-07T06:10:04.058Z,12.60
2019-05-07T06:12:57.733Z,7.93
2019-05-07T06:16:00.450Z,5.43
2019-05-07T06:18:46.435Z,5.57
2019-05-07T06:21:32.279Z,8.40
2019-05-07T06:24:02.485Z,7.33
2019-05-07T06:26:31.883Z,6.70
2019-05-07T06:29:02.303Z,5.83
2019-05-07T06:31:32.531Z,6.77
2019-05-07T06:34:19.449Z,7.73
2019-05-07T06:36:47.913Z,13.20
2019-05-07T06:39:24.290Z,7.97
2019-05-07T06:42:12.531Z,6.37
2019-05-07T06:44:42.575Z,10.03
2019-05-07T06:47:12.948Z,6.03
2019-05-07T06:49:42.730Z,7.93
2019-05-07T06:52:12.214Z,10.27
2019-05-07T06:54:42.742Z,10.27
2019-05-07T06:57:12.911Z,6.13
2019-05-07T06:59:45.957Z,8.40
2019-05-07T07:02:48.734Z,6.60
2019-05-07T07:05:35.356Z,9.50
2019-05-07T07:08:12.354Z,10.97
2019-05-07T07:11:08.037Z,14.70
2019-05-07T07:13:36.442Z,10.20
2019-05-07T07:16:04.907Z,14.57
2019-05-07T07:18:33.256Z,17.93
2019-05-07T07:21:02.295Z,19.07
2019-05-07T07:23:32.333Z,14.53
2019-05-07T07:26:02.935Z,10.53
2019-05-07T07:28:32.680Z,15.80
2019-05-07T07:31:12.798Z,5.63
2019-05-07T07:33:43.691Z,5.43
2019-05-07T07:36:12.043Z,3.13
2019-05-07T07:38:42.048Z,2.27
2019-05-07T07:41:43.000Z,1.73
2019-05-07T07:44:13.366Z,1.70
2019-05-07T07:46:42.403Z,2.70
2019-05-07T07:49:14.530Z,1.80
2019-05-07T07:51:44.471Z,4.00
2019-05-07T07:54:12.580Z,4.33
2019-05-07T07:57:09.393Z,3.10
2019-05-07T07:59:56.984Z,6.20
2019-05-07T08:02:38.061Z,3.13
2019-05-07T08:05:06.494Z,3.37
2019-05-07T08:07:34.836Z,3.63
2019-05-07T08:10:04.395Z,4.60
2019-05-07T08:12:32.651Z,3.70
2019-05-07T08:15:14.544Z,2.87
2019-05-07T08:17:32.639Z,6.23
2019-05-07T08:20:02.569Z,3.67
2019-05-07T08:22:32.822Z,3.73
2019-05-07T08:25:01.925Z,2.50
2019-05-07T08:27:32.456Z,4.23
2019-05-07T08:30:00.168Z,5.17
2019-05-07T08:32:53.528Z,3.27
2019-05-07T08:35:34.217Z,1.93
2019-05-07T08:38:02.549Z,2.13
2019-05-07T08:40:32.577Z,2.73
2019-05-07T08:43:07.660Z,3.90
2019-05-07T08:46:07.266Z,3.50
2019-05-07T08:48:42.384Z,4.67
2019-05-07T08:51:11.889Z,1.17
2019-05-07T08:53:42.188Z,1.80
2019-05-07T08:56:12.327Z,3.60
2019-05-07T08:58:42.079Z,5.27
2019-05-07T09:01:11.859Z,3.57
2019-05-07T09:03:43.305Z,3.30
2019-05-07T09:06:12.614Z,3.07
2019-05-07T09:08:40.837Z,9.80
2019-05-07T09:11:09.075Z,4.17
2019-05-07T09:13:37.292Z,4.77
2019-05-07T09:16:05.670Z,2.50
2019-05-07T09:18:33.993Z,3.33
2019-05-07T09:21:02.295Z,3.07
2019-05-07T09:23:31.925Z,3.30
2019-05-07T09:26:02.621Z,6.57
2019-05-07T09:29:05.413Z,2.80
2019-05-07T09:31:44.612Z,3.03
2019-05-07T09:34:12.844Z,5.10
2019-05-07T09:36:48.215Z,5.13
2019-05-07T09:39:16.556Z,6.23
2019-05-07T09:41:44.719Z,6.33
2019-05-07T09:44:13.143Z,6.30
2019-05-07T09:46:43.050Z,4.70
2019-05-07T09:49:12.027Z,3.43
2019-05-07T09:51:42.578Z,5.33
2019-05-07T09:54:12.576Z,3.20
2019-05-07T09:56:42.127Z,4.27
2019-05-07T09:59:12.444Z,5.53
2019-05-07T10:01:40.567Z,4.20
2019-05-07T10:04:08.769Z,6.23
2019-05-07T10:06:37.335Z,6.27
2019-05-07T10:09:06.522Z,4.67
2019-05-07T10:11:43.630Z,4.97
2019-05-07T10:14:12.585Z,8.23
2019-05-07T10:16:53.423Z,4.33
2019-05-07T10:19:22.244Z,4.57
2019-05-07T10:21:52.820Z,7.50
2019-05-07T10:24:22.259Z,6.57
2019-05-07T10:26:52.935Z,7.37
2019-05-07T10:29:22.710Z,3.53
2019-05-07T10:31:52.740Z,6.17
2019-05-07T10:34:22.808Z,7.67
2019-05-07T10:36:52.322Z,4.37
2019-05-07T10:39:22.076Z,5.40
2019-05-07T10:41:50.354Z,4.70
2019-05-07T10:44:20.366Z,6.60
2019-05-07T10:47:06.713Z,5.10
2019-05-07T10:49:42.742Z,9.20
2019-05-07T10:52:12.541Z,4.30
2019-05-07T10:54:40.947Z,4.27
2019-05-07T10:57:09.203Z,5.27
2019-05-07T10:59:37.452Z,4.50
2019-05-07T11:02:21.829Z,5.30
2019-05-07T11:05:09.428Z,7.57
2019-05-07T11:07:37.743Z,4.43
2019-05-07T11:10:06.309Z,5.00
2019-05-07T11:12:34.685Z,5.77
2019-05-07T11:15:03.171Z,5.40
2019-05-07T11:17:45.945Z,4.63
2019-05-07T11:20:15.172Z,5.53
2019-05-07T11:22:43.263Z,5.43
2019-05-07T11:25:12.055Z,5.83
2019-05-07T11:27:42.087Z,3.03
2019-05-07T11:30:11.935Z,4.93
2019-05-07T11:32:40.224Z,4.07
2019-05-07T11:35:09.251Z,4.20
2019-05-07T11:37:37.532Z,3.03
2019-05-07T11:40:06.552Z,3.67
2019-05-07T11:42:53.006Z,5.80
2019-05-07T11:45:28.657Z,3.80
2019-05-07T11:47:56.771Z,2.57
2019-05-07T11:50:33.428Z,4.40
2019-05-07T11:53:04.783Z,6.40
2019-05-07T11:55:33.000Z,6.43
2019-05-07T11:58:02.457Z,5.10
2019-05-07T12:00:53.184Z,4.67
2019-05-07T12:03:22.173Z,4.43
2019-05-07T12:05:52.532Z,4.03
2019-05-07T12:08:23.713Z,5.33
2019-05-07T12:10:51.797Z,4.47
2019-05-07T12:13:21.779Z,4.00
2019-05-07T12:15:52.229Z,5.97
2019-05-07T12:18:20.012Z,7.60
2019-05-07T12:20:48.317Z,3.90
2019-05-07T12:23:16.854Z,6.40
2019-05-07T12:25:45.354Z,6.83
2019-05-07T12:28:13.963Z,4.50
2019-05-07T12:30:56.632Z,6.40
2019-05-07T12:33:44.466Z,3.93
2019-05-07T12:36:13.672Z,4.53
2019-05-07T12:38:41.990Z,6.33
2019-05-07T12:41:28.646Z,5.87
2019-05-07T12:43:57.386Z,8.30
2019-05-07T12:46:25.650Z,10.17
2019-05-07T12:48:54.004Z,10.07
2019-05-07T12:51:33.899Z,4.23
2019-05-07T12:54:14.499Z,9.87
2019-05-07T12:56:42.790Z,10.07
2019-05-07T12:59:12.893Z,4.77
2019-05-07T13:01:54.992Z,5.10
2019-05-07T13:04:25.838Z,5.70
2019-05-07T13:07:22.000Z,4.87
2019-05-07T13:09:51.981Z,5.00
2019-05-07T13:12:21.745Z,4.87
2019-05-07T13:14:52.194Z,5.13
2019-05-07T13:17:22.270Z,5.97
2019-05-07T13:19:52.352Z,13.87
2019-05-07T13:22:21.929Z,4.93
2019-05-07T13:24:52.720Z,3.37
2019-05-07T13:27:20.701Z,4.53
2019-05-07T13:29:49.241Z,3.80
2019-05-07T13:32:19.608Z,11.13
2019-05-07T13:34:47.994Z,3.83
2019-05-07T13:37:21.950Z,6.33
2019-05-07T13:39:55.002Z,5.27
2019-05-07T13:42:43.757Z,5.87
2019-05-07T13:45:37.057Z,3.83
2019-05-07T13:48:12.170Z,4.87
2019-05-07T13:50:41.970Z,12.73
2019-05-07T13:53:12.170Z,5.33
2019-05-07T13:55:42.351Z,4.07
2019-05-07T13:58:14.097Z,5.23
2019-05-07T14:00:49.242Z,6.30
2019-05-07T14:03:17.563Z,4.57
2019-05-07T14:05:46.204Z,9.07
2019-05-07T14:08:14.881Z,7.40
2019-05-07T14:10:43.646Z,5.20
2019-05-07T14:13:17.185Z,8.23
2019-05-07T14:16:02.667Z,7.33
2019-05-07T14:18:32.686Z,6.80
2019-05-07T14:21:01.774Z,5.97
2019-05-07T14:23:32.388Z,5.00
2019-05-07T14:26:01.973Z,3.57
2019-05-07T14:28:32.513Z,4.90
2019-05-07T14:31:01.839Z,5.20
2019-05-07T14:33:49.174Z,12.30
2019-05-07T14:36:22.411Z,23.03
2019-05-07T14:38:52.024Z,5.50
2019-05-07T14:41:20.288Z,7.00
2019-05-07T14:43:57.316Z,8.33
2019-05-07T14:46:25.785Z,6.50
2019-05-07T14:48:54.035Z,6.53
2019-05-07T14:51:22.390Z,5.63
2019-05-07T14:53:50.689Z,6.13
2019-05-07T14:56:18.758Z,5.13
2019-05-07T14:58:46.861Z,7.23
2019-05-07T15:01:15.242Z,5.70
2019-05-07T15:03:43.483Z,4.00
2019-05-07T15:06:12.625Z,10.23
2019-05-07T15:08:42.738Z,7.17
2019-05-07T15:11:11.128Z,5.03
2019-05-07T15:13:39.496Z,3.87
2019-05-07T15:16:11.921Z,4.47
2019-05-07T15:18:57.627Z,4.03
2019-05-07T15:21:26.059Z,7.17
2019-05-07T15:23:56.307Z,6.30
2019-05-07T15:26:24.815Z,5.00
2019-05-07T15:29:06.798Z,3.23
2019-05-07T15:32:14.204Z,5.00
2019-05-07T15:34:47.135Z,4.07
2019-05-07T15:37:15.589Z,4.27
2019-05-07T15:39:43.912Z,22.80
2019-05-07T15:42:12.223Z,7.87
2019-05-07T15:44:40.498Z,3.37
2019-05-07T15:47:14.714Z,7.10
2019-05-07T15:49:43.202Z,4.00
2019-05-07T15:52:17.847Z,7.43
2019-05-07T15:54:46.210Z,5.47
2019-05-07T15:57:18.362Z,4.20
2019-05-07T15:59:48.436Z,4.97
2019-05-07T16:02:32.253Z,4.07
2019-05-07T16:05:02.181Z,5.23
2019-05-07T16:07:32.786Z,5.10
2019-05-07T16:10:00.891Z,6.40
2019-05-07T16:12:29.213Z,3.47
2019-05-07T16:14:57.539Z,3.87
2019-05-07T16:17:36.619Z,6.33
2019-05-07T16:20:05.232Z,4.30
2019-05-07T16:22:37.102Z,6.73
2019-05-07T16:25:07.425Z,7.30
2019-05-07T16:27:42.192Z,4.33
2019-05-07T16:30:14.044Z,5.23
2019-05-07T16:32:42.379Z,5.23
2019-05-07T16:35:12.508Z,4.30
2019-05-07T16:37:42.778Z,8.33
2019-05-07T16:40:12.665Z,4.03
2019-05-07T16:42:42.902Z,3.87
2019-05-07T16:45:13.165Z,3.13
2019-05-07T16:47:41.574Z,5.00
2019-05-07T16:50:10.166Z,2.60
2019-05-07T16:52:38.694Z,3.53
2019-05-07T16:55:07.307Z,6.37
2019-05-07T16:57:55.114Z,3.47
2019-05-07T17:00:31.860Z,4.23
2019-05-07T17:03:02.158Z,3.60
2019-05-07T17:05:32.074Z,6.33
2019-05-07T17:08:18.626Z,10.20
2019-05-07T17:10:46.843Z,5.10
2019-05-07T17:13:15.382Z,6.20
2019-05-07T17:15:59.838Z,3.90
2019-05-07T17:18:29.205Z,3.47
2019-05-07T17:20:57.707Z,3.53
2019-05-07T17:23:26.404Z,2.70
2019-05-07T17:25:54.825Z,5.30
2019-05-07T17:28:23.129Z,3.53
2019-05-07T17:30:52.487Z,5.67
2019-05-07T17:33:22.851Z,3.97
2019-05-07T17:35:51.962Z,5.97
2019-05-07T17:38:22.859Z,4.23
2019-05-07T17:40:52.145Z,6.80
2019-05-07T17:43:21.990Z,6.13
2019-05-07T17:45:52.268Z,6.20
2019-05-07T17:48:22.998Z,4.50
2019-05-07T17:51:12.299Z,4.43
2019-05-07T17:53:43.602Z,8.30
2019-05-07T17:56:12.646Z,5.00
2019-05-07T17:58:42.635Z,7.80
2019-05-07T18:01:11.029Z,6.27
2019-05-07T18:03:39.466Z,8.53
2019-05-07T18:06:08.049Z,10.77
2019-05-07T18:08:36.380Z,5.10
2019-05-07T18:11:17.302Z,5.23
2019-05-07T18:13:34.930Z,8.33
2019-05-07T18:16:22.139Z,5.70
2019-05-07T18:18:52.023Z,4.27
2019-05-07T18:21:22.021Z,3.33
2019-05-07T18:23:51.725Z,8.03
2019-05-07T18:26:29.601Z,5.00
2019-05-07T18:28:52.082Z,5.47
2019-05-07T18:31:24.876Z,6.13
2019-05-07T18:33:57.894Z,8.87
2019-05-07T18:36:28.118Z,4.73
2019-05-07T18:38:56.286Z,3.67
2019-05-07T18:41:24.663Z,6.27
2019-05-07T18:43:54.724Z,10.13
2019-05-07T18:46:23.125Z,11.83
2019-05-07T18:48:51.914Z,11.70
2019-05-07T18:51:20.529Z,11.23
2019-05-07T18:53:49.009Z,12.13
2019-05-07T18:56:17.432Z,12.47
2019-05-07T18:58:45.768Z,10.13
2019-05-07T19:01:14.917Z,7.53
2019-05-07T19:03:43.342Z,7.87
2019-05-07T19:06:13.380Z,8.13
2019-05-07T19:08:42.247Z,11.47
2019-05-07T19:11:12.333Z,9.43
2019-05-07T19:13:41.958Z,8.07
2019-05-07T19:16:12.395Z,6.87
2019-05-07T19:18:42.864Z,5.23
2019-05-07T19:21:10.734Z,8.87
2019-05-07T19:23:39.215Z,6.70
2019-05-07T19:26:07.491Z,47.23
2019-05-07T19:28:35.885Z,23.87
2019-05-07T19:31:04.108Z,12.63
2019-05-07T19:33:32.684Z,8.37
2019-05-07T19:36:01.267Z,10.60
2019-05-07T19:38:29.703Z,6.97
2019-05-07T19:40:58.057Z,7.77
2019-05-07T19:43:26.300Z,10.23
2019-05-07T19:45:54.557Z,11.90
2019-05-07T19:48:23.232Z,11.03
2019-05-07T19:50:52.730Z,10.27
2019-05-07T19:53:23.269Z,9.33
2019-05-07T19:56:22.801Z,7.87
2019-05-07T19:58:52.663Z,6.83
2019-05-07T20:01:25.952Z,10.97
2019-05-07T20:03:54.270Z,8.17
2019-05-07T20:06:23.385Z,7.77
2019-05-07T20:08:52.942Z,7.93
2019-05-07T20:11:42.492Z,7.53
2019-05-07T20:14:10.685Z,10.97
2019-05-07T20:16:39.058Z,8.67
2019-05-07T20:19:07.443Z,10.85
2019-05-07T20:21:36.080Z,13.90
2019-05-07T20:24:04.802Z,12.30
2019-05-07T20:26:33.254Z,12.30
2019-05-07T20:29:03.088Z,14.97
2019-05-07T20:31:33.486Z,12.17
2019-05-07T20:34:02.359Z,12.23
2019-05-07T20:36:32.791Z,11.20
2019-05-07T20:39:02.340Z,9.20
2019-05-07T20:41:32.511Z,11.97
2019-05-07T20:44:02.868Z,9.07
2019-05-07T20:46:31.904Z,10.30
2019-05-07T20:49:02.669Z,9.93
2019-05-07T20:51:32.436Z,8.90
2019-05-07T20:54:10.193Z,9.43
2019-05-07T20:56:41.994Z,14.40
2019-05-07T20:59:12.341Z,13.27
2019-05-07T21:01:41.965Z,13.03
2019-05-07T21:04:12.756Z,9.40
2019-05-07T21:06:42.986Z,8.57
2019-05-07T21:09:12.591Z,8.03
2019-05-07T21:11:43.068Z,9.97
2019-05-07T21:14:12.124Z,9.43
2019-05-07T21:16:42.474Z,7.90
2019-05-07T21:19:12.611Z,10.23
2019-05-07T21:21:42.201Z,13.43
2019-05-07T21:24:12.813Z,8.83
2019-05-07T21:26:42.344Z,10.37
2019-05-07T21:29:10.613Z,8.70
2019-05-07T21:31:38.937Z,10.20
2019-05-07T21:34:07.368Z,8.23
2019-05-07T21:36:35.594Z,8.33
2019-05-07T21:39:05.689Z,9.20
2019-05-07T21:41:34.145Z,9.67
2019-05-07T21:44:02.724Z,7.33
2019-05-07T21:46:32.928Z,7.10
2019-05-07T21:49:02.628Z,11.60
2019-05-07T21:51:30.987Z,10.03
2019-05-07T21:54:23.563Z,12.77
2019-05-07T21:57:12.797Z,14.03
2019-05-07T21:59:43.176Z,15.10
2019-05-07T22:02:22.298Z,8.37
2019-05-07T22:04:52.768Z,10.40
2019-05-07T22:07:22.747Z,9.00
2019-05-07T22:09:52.315Z,8.50
2019-05-07T22:12:22.584Z,9.70
2019-05-07T22:14:51.000Z,7.40
2019-05-07T22:17:19.274Z,10.07
2019-05-07T22:19:47.807Z,9.33
2019-05-07T22:22:16.130Z,8.87
2019-05-07T22:24:44.415Z,10.47
2019-05-07T22:27:13.028Z,9.27
2019-05-07T22:29:41.749Z,11.10
2019-05-07T22:32:38.777Z,8.67
2019-05-07T22:35:12.972Z,8.83
2019-05-07T22:37:41.475Z,8.93
2019-05-07T22:40:12.054Z,7.17
2019-05-07T22:42:39.714Z,7.20
2019-05-07T22:45:08.252Z,6.70
2019-05-07T22:47:36.828Z,5.60
2019-05-07T22:50:05.254Z,5.03
2019-05-07T22:52:33.588Z,5.73
2019-05-07T22:55:01.785Z,8.43
2019-05-07T22:57:52.572Z,7.83
2019-05-07T23:00:49.611Z,6.90
2019-05-07T23:03:18.136Z,8.17
2019-05-07T23:05:46.426Z,3.53
2019-05-07T23:08:14.704Z,6.93
2019-05-07T23:10:44.667Z,4.97
2019-05-07T23:13:13.242Z,6.10
2019-05-07T23:15:42.917Z,10.47
2019-05-07T23:18:12.969Z,13.13
2019-05-07T23:20:42.683Z,7.23
2019-05-07T23:23:13.863Z,9.27
2019-05-07T23:25:43.090Z,6.20
2019-05-07T23:28:12.586Z,6.73
2019-05-07T23:30:42.139Z,6.37
2019-05-07T23:33:12.046Z,4.73
2019-05-07T23:35:42.124Z,3.57
2019-05-07T23:38:12.238Z,3.83
2019-05-07T23:41:02.672Z,3.87
2019-05-07T23:43:30.921Z,4.33
2019-05-07T23:45:59.429Z,3.57
2019-05-07T23:48:27.869Z,3.70
2019-05-07T23:50:56.142Z,2.77
2019-05-07T23:53:24.618Z,3.97
2019-05-07T23:55:52.941Z,6.17
2019-05-07T23:58:23.060Z,4.63
